Time;durP1;ratioP1;P1;durP2;ratioP2;P2;SDS_P1;SDS_P2;PMS_P1;PMS_P2;Temp;Humidity;BMP_temperature;BMP_pressure;BME280_temperature;BME280_humidity;BME280_pressure;Samples;Min_cycle;Max_cycle;Signal;HPM_P1;HPM_P2
2024/03/23 00:02:04;;;;;;;22.20;14.60;;;282.00;2099.20;;;;;;5009169;28;20037;-74
2024/03/23 00:04:30;;;;;;;30.23;22.48;;;282.00;2099.20;;;;;;5003623;28;20097;-74
2024/03/23 00:06:57;;;;;;;29.02;17.98;;;281.90;2099.20;;;;;;5008265;28;20038;-74
2024/03/23 00:09:24;;;;;;;43.22;26.73;;;281.90;2099.20;;;;;;5008547;28;20038;-74
2024/03/23 00:11:51;;;;;;;54.03;31.17;;;281.80;2124.80;;;;;;5010651;28;20032;-74
2024/03/23 00:14:18;;;;;;;47.35;30.10;;;281.80;2124.80;;;;;;4995082;28;20432;-74
2024/03/23 00:16:44;;;;;;;33.20;22.58;;;281.80;2124.80;;;;;;5012717;28;20080;-73
2024/03/23 00:19:11;;;;;;;32.67;21.27;;;281.80;2124.80;;;;;;5012252;28;20072;-74
2024/03/23 00:21:41;;;;;;;30.83;21.00;;;281.80;2124.80;;;;;;5012803;28;20718;-74
2024/03/23 00:24:07;;;;;;;23.65;18.40;;;281.80;2124.80;;;;;;5012052;28;20080;-74
2024/03/23 00:26:34;;;;;;;29.67;19.40;;;281.80;2124.80;;;;;;5012549;28;20033;-75
2024/03/23 00:29:01;;;;;;;30.60;22.67;;;281.70;2124.80;;;;;;5012152;28;20018;-73
2024/03/23 00:31:28;;;;;;;37.83;23.88;;;281.70;2124.80;;;;;;5012469;28;20100;-74
2024/03/23 00:33:54;;;;;;;40.20;22.08;;;281.70;2124.80;;;;;;5012092;28;20022;-74
2024/03/23 00:36:21;;;;;;;71.97;45.85;;;281.60;2124.80;;;;;;5012153;28;20026;-74
2024/03/23 00:38:48;;;;;;;37.83;25.17;;;281.60;2124.80;;;;;;5011711;28;20052;-74
2024/03/23 00:41:14;;;;;;;43.72;26.92;;;281.70;2150.40;;;;;;5012399;28;20025;-75
2024/03/23 00:43:41;;;;;;;48.67;29.67;;;281.70;2124.80;;;;;;5011843;28;20468;-74
2024/03/23 00:46:08;;;;;;;59.92;37.78;;;281.60;2124.80;;;;;;5011939;28;20022;-74
2024/03/23 00:48:35;;;;;;;33.13;22.58;;;281.60;2124.80;;;;;;4994296;28;20029;-74
2024/03/23 00:51:01;;;;;;;46.42;26.48;;;281.60;2124.80;;;;;;5012032;28;20025;-74
2024/03/23 00:53:28;;;;;;;40.83;24.65;;;281.60;2150.40;;;;;;5011750;28;20033;-74
2024/03/23 00:55:54;;;;;;;39.20;22.98;;;281.60;2150.40;;;;;;5012264;28;20068;-74
2024/03/23 00:58:20;;;;;;;38.97;23.25;;;256.90;2124.80;;;;;;4993952;28;20389;-74
2024/03/23 01:00:45;;;;;;;31.40;19.63;;;256.90;2124.80;;;;;;5011298;28;20049;-74
2024/03/23 01:03:11;;;;;;;23.55;15.70;;;256.90;2124.80;;;;;;5011286;28;20121;-74
2024/03/23 01:05:37;;;;;;;53.10;30.73;;;256.90;2124.80;;;;;;5011685;28;20512;-74
2024/03/23 01:08:03;;;;;;;27.60;18.58;;;256.90;2124.80;;;;;;5011607;28;20524;-73
2024/03/23 01:10:29;;;;;;;94.78;56.20;;;256.80;2124.80;;;;;;5011528;28;20029;-73
2024/03/23 01:12:55;;;;;;;28.33;18.42;;;256.80;2124.80;;;;;;5011203;28;20026;-74
2024/03/23 01:15:20;;;;;;;37.47;22.35;;;256.80;2124.80;;;;;;5011307;28;20431;-74
2024/03/23 01:17:46;;;;;;;50.70;29.23;;;256.80;2124.80;;;;;;5011058;28;20080;-73
2024/03/23 01:20:12;;;;;;;31.13;21.38;;;256.70;2150.40;;;;;;4993808;28;20033;-74
2024/03/23 01:22:38;;;;;;;32.58;22.40;;;256.70;2124.80;;;;;;5010499;28;20030;-75
2024/03/23 01:25:04;;;;;;;47.28;25.52;;;256.60;2150.40;;;;;;5011256;28;20449;-73
2024/03/23 01:27:30;;;;;;;36.90;21.98;;;256.60;2150.40;;;;;;5004974;28;20050;-73
2024/03/23 01:29:55;;;;;;;40.45;26.40;;;256.60;2150.40;;;;;;5009222;28;20038;-73
2024/03/23 01:32:21;;;;;;;27.80;16.88;;;256.60;2150.40;;;;;;5005691;28;20483;-72
2024/03/23 01:34:47;;;;;;;22.63;15.52;;;256.60;2150.40;;;;;;5010680;28;20503;-74
2024/03/23 01:37:13;;;;;;;27.35;16.80;;;256.50;2150.40;;;;;;5018315;28;20025;-73
2024/03/23 01:39:39;;;;;;;28.35;17.25;;;256.50;2150.40;;;;;;5019501;28;20083;-73
2024/03/23 01:42:05;;;;;;;111.30;81.63;;;256.50;2176.00;;;;;;5029270;28;20029;-73
2024/03/23 01:44:31;;;;;;;65.80;43.70;;;256.50;2176.00;;;;;;5011335;28;20026;-73
2024/03/23 01:46:57;;;;;;;39.33;31.23;;;256.50;2176.00;;;;;;5022275;28;20079;-73
2024/03/23 01:49:23;;;;;;;36.10;26.55;;;256.40;2176.00;;;;;;5029354;28;20021;-73
2024/03/23 01:51:49;;;;;;;45.78;28.88;;;256.50;2150.40;;;;;;5026534;28;20028;-73
2024/03/23 01:54:16;;;;;;;58.50;35.20;;;256.50;2150.40;;;;;;5028094;28;20017;-73
2024/03/23 01:56:41;;;;;;;86.35;48.50;;;256.50;2150.40;;;;;;5024498;28;20048;-74
2024/03/23 01:59:07;;;;;;;58.65;35.70;;;256.50;2150.40;;;;;;5008348;28;20496;-74
2024/03/23 02:01:38;;;;;;;37.08;23.50;;;256.50;2150.40;;;;;;5016419;28;20034;-73
2024/03/23 02:04:04;;;;;;;56.28;35.05;;;256.50;2150.40;;;;;;5001866;28;20034;-73
2024/03/23 02:06:31;;;;;;;60.35;37.75;;;256.50;2176.00;;;;;;5021938;28;20068;-74
2024/03/23 02:08:57;;;;;;;98.53;60.92;;;256.40;2176.00;;;;;;4995171;28;20093;-74
2024/03/23 02:11:23;;;;;;;58.90;37.17;;;256.40;2176.00;;;;;;5004986;28;20025;-73
2024/03/23 02:13:49;;;;;;;28.98;20.05;;;256.40;2176.00;;;;;;4999682;28;20025;-73
2024/03/23 02:16:15;;;;;;;24.83;15.25;;;256.40;2176.00;;;;;;5017068;28;20025;-73
2024/03/23 02:18:41;;;;;;;25.13;18.13;;;256.40;2176.00;;;;;;5006981;28;20058;-73
2024/03/23 02:21:06;;;;;;;29.10;18.35;;;256.40;2176.00;;;;;;5016556;28;20022;-73
2024/03/23 02:23:32;;;;;;;37.85;21.42;;;256.30;2176.00;;;;;;5009851;28;20109;-73
2024/03/23 02:25:58;;;;;;;25.65;16.20;;;256.30;2176.00;;;;;;5009709;28;20101;-74
2024/03/23 02:28:24;;;;;;;39.78;23.65;;;256.30;2176.00;;;;;;5009634;28;20025;-73
2024/03/23 02:30:50;;;;;;;29.88;19.92;;;256.20;2201.60;;;;;;5009110;28;20149;-74
2024/03/23 02:33:16;;;;;;;24.33;14.48;;;256.20;2201.60;;;;;;5009947;28;20468;-73
2024/03/23 02:35:43;;;;;;;22.67;17.15;;;256.20;2201.60;;;;;;5009510;28;20427;-73
2024/03/23 02:38:09;;;;;;;29.45;16.23;;;256.20;2201.60;;;;;;5008975;28;20383;-73
2024/03/23 02:40:36;;;;;;;45.53;25.60;;;256.20;2201.60;;;;;;5009377;28;20022;-73
2024/03/23 02:43:03;;;;;;;54.92;31.05;;;256.20;2201.60;;;;;;5009462;28;20082;-74
2024/03/23 02:45:29;;;;;;;41.47;23.58;;;256.10;2201.60;;;;;;5008815;28;20523;-72
2024/03/23 02:47:55;;;;;;;63.88;39.88;;;256.00;2227.20;;;;;;5009709;28;20109;-72
2024/03/23 02:50:21;;;;;;;85.97;49.35;;;256.10;2201.60;;;;;;5008733;28;20061;-73
2024/03/23 02:52:48;;;;;;;101.55;57.88;;;256.10;2201.60;;;;;;5009408;28;20547;-74
2024/03/23 02:55:14;;;;;;;50.67;32.28;;;256.10;2201.60;;;;;;5008732;28;20026;-73
2024/03/23 02:57:41;;;;;;;52.03;31.73;;;256.00;2201.60;;;;;;5009225;28;20022;-74
2024/03/23 03:00:07;;;;;;;30.13;20.27;;;256.00;2201.60;;;;;;5009323;28;20096;-74
2024/03/23 03:02:33;;;;;;;26.00;16.38;;;256.00;2201.60;;;;;;5009130;28;20117;-74
2024/03/23 03:04:59;;;;;;;24.17;15.90;;;256.00;2201.60;;;;;;5009049;28;20025;-74
2024/03/23 03:07:25;;;;;;;43.10;25.17;;;256.00;2227.20;;;;;;5009464;28;20029;-74
2024/03/23 03:09:51;;;;;;;52.28;29.88;;;231.30;2201.60;;;;;;5008714;28;20076;-73
2024/03/23 03:12:17;;;;;;;125.03;72.20;;;231.30;2227.20;;;;;;5008898;28;20096;-74
2024/03/23 03:14:43;;;;;;;136.63;70.97;;;231.30;2227.20;;;;;;5009027;28;20014;-73
2024/03/23 03:17:09;;;;;;;48.25;27.33;;;231.30;2227.20;;;;;;5009205;28;20029;-72
2024/03/23 03:19:35;;;;;;;73.38;42.60;;;231.30;2227.20;;;;;;5009145;28;20025;-72
2024/03/23 03:22:00;;;;;;;59.70;33.20;;;231.30;2227.20;;;;;;5008869;28;20404;-71
2024/03/23 03:24:26;;;;;;;30.48;17.83;;;231.20;2227.20;;;;;;5008872;28;20830;-73
2024/03/23 03:26:52;;;;;;;32.97;19.60;;;231.20;2227.20;;;;;;5008921;28;20033;-73
2024/03/23 03:29:18;;;;;;;38.45;22.52;;;231.30;2227.20;;;;;;5008469;28;20034;-73
2024/03/23 03:31:44;;;;;;;53.97;29.58;;;231.30;2227.20;;;;;;5009069;28;20447;-74
2024/03/23 03:34:10;;;;;;;30.02;16.98;;;231.30;2252.80;;;;;;5008869;28;20034;-74
2024/03/23 03:36:35;;;;;;;23.45;16.00;;;231.30;2252.80;;;;;;5009208;28;20105;-73
2024/03/23 03:39:04;;;;;;;24.85;15.70;;;231.20;2252.80;;;;;;5008470;28;20022;-74
2024/03/23 03:41:31;;;;;;;17.45;11.85;;;231.20;2252.80;;;;;;5008640;28;20093;-73
2024/03/23 03:44:01;;;;;;;22.77;14.75;;;231.20;2252.80;;;;;;5008772;28;20495;-73
2024/03/23 03:46:30;;;;;;;30.20;17.40;;;231.20;2252.80;;;;;;5010017;28;20025;-73
2024/03/23 03:48:56;;;;;;;32.60;21.15;;;231.20;2252.80;;;;;;5012925;28;20049;-73
2024/03/23 03:51:21;;;;;;;26.15;22.35;;;231.20;2252.80;;;;;;5012734;28;20464;-74
2024/03/23 03:53:47;;;;;;;26.88;14.05;;;231.20;2227.20;;;;;;5012165;28;20041;-74
2024/03/23 03:56:13;;;;;;;21.20;15.63;;;231.30;2227.20;;;;;;5012636;28;20026;-75
2024/03/23 03:58:40;;;;;;;33.75;21.73;;;231.20;2227.20;;;;;;5012459;28;20112;-74
2024/03/23 04:01:06;;;;;;;29.90;18.50;;;231.20;2227.20;;;;;;5012003;28;20025;-73
2024/03/23 04:03:31;;;;;;;18.85;13.80;;;231.20;2252.80;;;;;;5012411;28;20046;-73
2024/03/23 04:05:57;;;;;;;21.23;13.57;;;231.10;2252.80;;;;;;5012035;28;20040;-75
2024/03/23 04:08:24;;;;;;;18.00;11.73;;;231.00;2252.80;;;;;;5012650;28;20029;-74
2024/03/23 04:10:50;;;;;;;35.35;31.17;;;231.00;2252.80;;;;;;5012544;28;20025;-73
2024/03/23 04:13:16;;;;;;;20.23;16.73;;;230.90;2252.80;;;;;;5012674;28;20022;-73
2024/03/23 04:15:42;;;;;;;15.82;10.55;;;230.90;2252.80;;;;;;5012552;28;20045;-74
2024/03/23 04:18:08;;;;;;;19.17;11.50;;;230.90;2252.80;;;;;;5012383;28;20025;-73
2024/03/23 04:20:34;;;;;;;17.67;11.63;;;230.90;2252.80;;;;;;5012649;28;20022;-72
2024/03/23 04:23:00;;;;;;;28.13;18.90;;;230.90;2252.80;;;;;;5012176;28;20104;-73
2024/03/23 04:25:26;;;;;;;35.75;19.48;;;230.90;2252.80;;;;;;5012590;28;20361;-73
2024/03/23 04:27:52;;;;;;;18.20;12.43;;;230.90;2252.80;;;;;;5012340;28;20076;-73
2024/03/23 04:30:19;;;;;;;16.38;11.98;;;231.00;2252.80;;;;;;5011872;28;20054;-73
2024/03/23 04:32:45;;;;;;;15.93;10.57;;;230.90;2252.80;;;;;;4994930;28;20026;-73
2024/03/23 04:35:11;;;;;;;21.73;12.43;;;230.90;2252.80;;;;;;5012136;28;20018;-72
2024/03/23 04:37:37;;;;;;;19.23;12.73;;;230.80;2252.80;;;;;;5012198;28;20041;-73
2024/03/23 04:40:04;;;;;;;23.50;14.45;;;230.80;2252.80;;;;;;5012270;28;20495;-73
2024/03/23 04:42:31;;;;;;;18.85;12.45;;;230.70;2252.80;;;;;;5011784;28;20033;-73
2024/03/23 04:44:57;;;;;;;17.60;12.55;;;230.70;2252.80;;;;;;5012218;28;20022;-72
2024/03/23 04:47:22;;;;;;;21.40;15.13;;;230.80;2252.80;;;;;;5012017;28;20072;-72
2024/03/23 04:49:49;;;;;;;18.33;13.48;;;230.80;2252.80;;;;;;5011901;28;20125;-73
2024/03/23 04:52:16;;;;;;;20.95;13.30;;;230.80;2252.80;;;;;;5011933;28;20050;-72
2024/03/23 04:54:42;;;;;;;23.90;13.32;;;230.90;2252.80;;;;;;5011691;28;20108;-73
2024/03/23 04:57:08;;;;;;;16.77;12.10;;;230.90;2252.80;;;;;;5011401;28;20546;-73
2024/03/23 04:59:33;;;;;;;19.98;13.55;;;230.90;2252.80;;;;;;5011411;28;20038;-73
2024/03/23 05:02:00;;;;;;;19.13;12.13;;;230.80;2252.80;;;;;;5011526;28;20025;-74
2024/03/23 05:04:26;;;;;;;22.75;13.38;;;230.70;2252.80;;;;;;5011747;28;20078;-73
2024/03/23 05:06:52;;;;;;;23.30;13.10;;;230.80;2252.80;;;;;;5011809;28;20018;-74
2024/03/23 05:09:18;;;;;;;19.75;13.15;;;230.90;2252.80;;;;;;5011509;28;20361;-72
2024/03/23 05:11:44;;;;;;;16.92;11.43;;;231.00;2252.80;;;;;;5011487;28;20087;-72
2024/03/23 05:14:10;;;;;;;19.52;12.90;;;231.00;2252.80;;;;;;5011162;28;20079;-73
2024/03/23 05:16:36;;;;;;;21.02;16.13;;;231.10;2252.80;;;;;;5011558;28;20439;-73
2024/03/23 05:19:02;;;;;;;26.80;15.13;;;231.10;2252.80;;;;;;5011601;28;20112;-74
2024/03/23 05:21:28;;;;;;;21.42;13.02;;;231.10;2252.80;;;;;;4993267;28;20034;-74
2024/03/23 05:23:54;;;;;;;24.95;15.80;;;231.20;2252.80;;;;;;5011367;28;20083;-73
2024/03/23 05:26:21;;;;;;;22.08;14.63;;;231.30;2252.80;;;;;;5011063;28;20030;-73
2024/03/23 05:28:47;;;;;;;18.65;13.27;;;231.30;2252.80;;;;;;5011111;28;20030;-74
2024/03/23 05:31:22;;;;;;;20.10;12.60;;;231.30;2252.80;;;;;;5011060;28;20045;-75
2024/03/23 05:33:48;;;;;;;19.52;13.88;;;256.00;2252.80;;;;;;5011102;28;20026;-75
2024/03/23 05:36:14;;;;;;;54.13;31.75;;;256.20;2252.80;;;;;;5011375;28;20018;-73
2024/03/23 05:38:39;;;;;;;51.13;30.75;;;256.30;2252.80;;;;;;5010557;28;20084;-74
2024/03/23 05:41:05;;;;;;;47.20;33.53;;;256.50;2252.80;;;;;;5011241;28;20045;-74
2024/03/23 05:43:31;;;;;;;53.28;31.42;;;256.50;2252.80;;;;;;5010780;28;20034;-73
2024/03/23 05:45:58;;;;;;;70.78;42.22;;;256.70;2252.80;;;;;;5017957;28;20057;-74
2024/03/23 05:48:30;;;;;;;38.10;25.90;;;256.80;2227.20;;;;;;5010991;28;20045;-74
2024/03/23 05:50:56;;;;;;;46.20;33.53;;;281.90;2252.80;;;;;;5010816;28;20052;-73
2024/03/23 05:53:21;;;;;;;52.88;35.40;;;282.50;2201.60;;;;;;5010897;28;20018;-72
2024/03/23 05:55:47;;;;;;;41.85;29.20;;;333.00;2124.80;;;;;;5008185;28;20087;-73
2024/03/23 05:58:15;;;;;;;35.40;23.98;;;358.50;2048.00;;;;;;5020540;28;20022;-75
2024/03/23 06:00:42;;;;;;;22.35;15.43;;;359.20;1971.20;;;;;;5015420;28;20034;-74
2024/03/23 06:03:08;;;;;;;25.23;16.58;;;384.50;1894.40;;;;;;5010106;28;20041;-75
2024/03/23 06:05:34;;;;;;;18.38;14.40;;;410.20;1817.60;;;;;;5010841;28;20524;-74
2024/03/23 06:08:00;;;;;;;19.48;13.70;;;435.50;1740.80;;;;;;5010297;28;20167;-74
2024/03/23 06:10:26;;;;;;;19.05;13.77;;;435.80;1715.20;;;;;;5009928;28;20061;-74
2024/03/23 06:12:52;;;;;;;21.33;17.35;;;461.20;1689.60;;;;;;5009824;28;20024;-73
2024/03/23 06:15:22;;;;;;;21.75;16.95;;;487.30;1587.20;;;;;;5010319;28;20025;-74
2024/03/23 06:17:48;;;;;;;20.58;14.52;;;538.40;1484.80;;;;;;5010042;28;20048;-73
2024/03/23 06:20:15;;;;;;;17.58;13.15;;;563.60;1459.20;;;;;;5009843;28;20057;-74
2024/03/23 06:22:41;;;;;;;14.15;11.48;;;589.30;1408.00;;;;;;5010155;28;20026;-74
2024/03/23 06:25:09;;;;;;;22.45;19.52;;;615.10;1331.20;;;;;;5010392;28;20100;-74
2024/03/23 06:27:35;;;;;;;26.10;23.05;;;640.60;1305.60;;;;;;5010463;28;20057;-74
2024/03/23 06:30:02;;;;;;;29.95;25.42;;;666.50;1280.00;;;;;;5009528;28;20072;-74
2024/03/23 06:32:29;;;;;;;29.67;26.02;;;691.60;1228.80;;;;;;5009969;28;20061;-74
2024/03/23 06:34:55;;;;;;;29.27;24.30;;;691.80;1228.80;;;;;;5010363;28;20026;-74
2024/03/23 06:37:21;;;;;;;27.60;22.77;;;716.80;1203.20;;;;;;5010939;28;20542;-74
2024/03/23 06:39:47;;;;;;;31.85;26.33;;;717.10;1203.20;;;;;;5010095;28;20030;-76
2024/03/23 06:42:13;;;;;;;34.55;28.65;;;717.70;1177.60;;;;;;5009789;28;20021;-75
2024/03/23 06:44:39;;;;;;;42.35;35.42;;;742.50;1203.20;;;;;;5009774;28;20030;-74
2024/03/23 06:47:05;;;;;;;37.45;30.42;;;742.90;1152.00;;;;;;5010055;28;20092;-75
2024/03/23 06:49:31;;;;;;;33.38;28.40;;;743.10;1152.00;;;;;;5009720;28;20029;-74
2024/03/23 06:51:57;;;;;;;30.52;26.48;;;768.20;1126.40;;;;;;5009909;28;20515;-74
2024/03/23 06:54:25;;;;;;;26.10;23.15;;;768.40;1126.40;;;;;;5009799;28;20022;-74
2024/03/23 06:56:51;;;;;;;25.90;23.20;;;793.60;1126.40;;;;;;5009516;28;20010;-74
2024/03/23 06:59:17;;;;;;;25.73;22.38;;;794.20;1100.80;;;;;;4992149;28;20113;-74
2024/03/23 07:01:43;;;;;;;30.50;24.58;;;819.30;1075.20;;;;;;5009471;28;20021;-75
2024/03/23 07:04:09;;;;;;;28.38;25.45;;;820.00;1049.60;;;;;;5009379;28;20137;-75
2024/03/23 07:06:42;;;;;;;29.48;25.52;;;845.30;1049.60;;;;;;5009622;28;20014;-75
2024/03/23 07:09:08;;;;;;;23.35;20.85;;;845.70;1024.00;;;;;;5009115;28;20037;-73
2024/03/23 07:11:34;;;;;;;33.97;27.05;;;845.70;972.80;;;;;;5009720;28;20017;-75
2024/03/23 07:14:00;;;;;;;35.42;30.88;;;870.70;972.80;;;;;;5009012;28;20040;-75
2024/03/23 07:16:27;;;;;;;41.50;37.17;;;870.60;998.40;;;;;;5009459;28;20030;-74
2024/03/23 07:18:52;;;;;;;44.15;38.00;;;871.00;998.40;;;;;;5009539;28;20022;-75
2024/03/23 07:21:18;;;;;;;42.80;37.45;;;871.20;972.80;;;;;;5008330;28;20033;-74
2024/03/23 07:23:44;;;;;;;44.47;38.72;;;896.20;972.80;;;;;;5009311;28;20033;-75
2024/03/23 07:26:11;;;;;;;52.08;42.00;;;871.30;972.80;;;;;;5009205;28;20026;-76
2024/03/23 07:28:38;;;;;;;43.20;38.00;;;896.20;947.20;;;;;;5009610;28;20036;-76
2024/03/23 07:31:05;;;;;;;45.53;40.78;;;896.20;947.20;;;;;;5009018;28;20049;-76
2024/03/23 07:33:31;;;;;;;47.53;42.35;;;921.80;947.20;;;;;;5009537;28;20380;-75
2024/03/23 07:35:59;;;;;;;50.60;45.08;;;922.30;921.60;;;;;;5009798;28;20096;-75
2024/03/23 07:38:26;;;;;;;50.08;44.55;;;922.10;947.20;;;;;;5009252;28;20022;-74
2024/03/23 07:40:55;;;;;;;51.15;45.38;;;922.30;947.20;;;;;;5008935;28;20068;-75
2024/03/23 07:43:22;;;;;;;54.88;49.28;;;922.30;947.20;;;;;;5008944;28;20042;-75
2024/03/23 07:45:53;;;;;;;52.40;45.92;;;947.20;921.60;;;;;;5008774;28;20050;-76
2024/03/23 07:48:24;;;;;;;53.13;45.70;;;947.20;921.60;;;;;;5008944;28;20092;-75
2024/03/23 07:50:57;;;;;;;53.22;43.88;;;947.40;896.00;;;;;;5009261;28;20026;-75
2024/03/23 07:53:22;;;;;;;46.53;39.97;;;947.40;921.60;;;;;;5009045;28;20033;-75
2024/03/23 07:55:55;;;;;;;43.83;39.28;;;947.80;896.00;;;;;;5008975;28;20030;-75
2024/03/23 07:58:21;;;;;;;;;;;948.10;896.00;;;;;;5009580;28;20053;-75
2024/03/23 08:00:47;;;;;;;40.30;35.97;;;948.00;896.00;;;;;;5008908;28;20317;-75
2024/03/23 08:03:13;;;;;;;36.50;32.63;;;947.60;896.00;;;;;;5009083;28;20045;-75
2024/03/23 08:05:39;;;;;;;37.35;33.08;;;948.00;896.00;;;;;;5008948;28;20021;-76
2024/03/23 08:08:05;;;;;;;42.33;37.85;;;972.80;921.60;;;;;;5009228;28;20475;-74
2024/03/23 08:10:30;;;;;;;38.90;35.10;;;947.40;896.00;;;;;;5008947;28;20026;-75
2024/03/23 08:12:56;;;;;;;38.03;34.25;;;922.40;921.60;;;;;;5009239;28;20030;-75
2024/03/23 08:15:22;;;;;;;46.10;36.65;;;947.60;896.00;;;;;;5009114;28;20022;-74
2024/03/23 08:17:49;;;;;;;39.92;35.47;;;947.80;896.00;;;;;;5008100;28;20380;-75
2024/03/23 08:20:15;;;;;;;39.22;35.08;;;972.80;921.60;;;;;;5009267;28;20017;-75
2024/03/23 08:22:41;;;;;;;40.00;31.63;;;973.20;896.00;;;;;;5008867;28;20418;-75
2024/03/23 08:25:07;;;;;;;39.15;34.97;;;973.40;870.40;;;;;;5008952;28;20022;-75
2024/03/23 08:27:33;;;;;;;41.03;35.22;;;973.60;870.40;;;;;;4998126;28;20031;-75
2024/03/23 08:29:58;;;;;;;32.20;28.58;;;998.80;896.00;;;;;;5016026;28;20116;-71
2024/03/23 08:32:24;;;;;;;31.25;27.98;;;999.10;870.40;;;;;;5012347;28;20033;-72
2024/03/23 08:34:50;;;;;;;29.85;26.88;;;1024.70;844.80;;;;;;4994712;28;20030;-73
2024/03/23 08:37:16;;;;;;;29.38;26.48;;;1024.40;844.80;;;;;;5012535;28;20395;-70
2024/03/23 08:39:45;;;;;;;23.80;20.30;;;1024.60;844.80;;;;;;5012073;28;20022;-81
2024/03/23 08:42:10;;;;;;;25.25;19.17;;;1024.40;819.20;;;;;;5011885;28;20026;-81
2024/03/23 08:44:36;;;;;;;27.67;21.95;;;999.00;844.80;;;;;;5012107;28;20500;-70
2024/03/23 08:47:02;;;;;;;26.70;22.60;;;998.90;844.80;;;;;;5012256;28;20052;-80
2024/03/23 08:49:28;;;;;;;25.15;21.92;;;998.80;870.40;;;;;;5012008;28;20030;-72
2024/03/23 08:51:54;;;;;;;21.85;19.55;;;1024.00;844.80;;;;;;4999199;28;20022;-73
2024/03/23 08:54:23;;;;;;;19.33;16.90;;;1024.10;844.80;;;;;;5011850;28;20060;-74
2024/03/23 08:56:48;;;;;;;20.42;18.27;;;973.50;844.80;;;;;;5011798;28;20080;-79
2024/03/23 08:59:14;;;;;;;17.73;15.70;;;947.70;870.40;;;;;;5012010;28;20479;-70
2024/03/23 09:01:40;;;;;;;17.35;15.55;;;896.60;870.40;;;;;;5001144;28;20084;-75
2024/03/23 09:04:06;;;;;;;17.65;15.98;;;845.50;947.20;;;;;;5005810;28;20081;-72
2024/03/23 09:06:32;;;;;;;14.05;12.75;;;819.80;947.20;;;;;;5014909;28;20380;-69
2024/03/23 09:08:57;;;;;;;12.40;11.13;;;793.60;998.40;;;;;;5017736;28;20040;-76
2024/03/23 09:11:23;;;;;;;16.35;13.70;;;768.30;1049.60;;;;;;5011699;28;20026;-72
2024/03/23 09:13:49;;;;;;;17.27;15.48;;;743.00;1075.20;;;;;;5011403;28;20049;-76
2024/03/23 09:16:15;;;;;;;18.40;12.35;;;742.50;1126.40;;;;;;5012034;28;20026;-72
2024/03/23 09:18:41;;;;;;;19.27;15.68;;;717.40;1049.60;;;;;;5010993;28;20145;-71
2024/03/23 09:21:13;;;;;;;37.70;33.05;;;691.90;1075.20;;;;;;5012628;28;20038;-69
2024/03/23 09:23:39;;;;;;;;;;;691.70;1100.80;;;;;;5019991;28;20088;-71
2024/03/23 09:26:07;;;;;;;17.65;13.55;;;691.40;1152.00;;;;;;5004198;28;19913;-70
2024/03/23 09:28:33;;;;;;;27.58;19.15;;;666.50;1126.40;;;;;;4996642;28;20026;-70
2024/03/23 09:31:15;;;;;;;8.82;6.80;;;666.40;1152.00;;;;;;5010388;28;20072;-70
2024/03/23 09:33:41;;;;;;;7.97;4.70;;;666.00;1126.40;;;;;;5011178;28;20033;-70
2024/03/23 09:36:08;;;;;;;9.00;6.15;;;640.60;1126.40;;;;;;5011576;28;20045;-71
2024/03/23 09:38:35;;;;;;;6.75;5.60;;;640.10;1152.00;;;;;;5011129;28;20060;-70
2024/03/23 09:41:07;;;;;;;7.43;5.13;;;615.30;1152.00;;;;;;5011138;28;20022;-70
2024/03/23 09:43:34;;;;;;;36.92;8.55;;;615.00;1177.60;;;;;;5010570;28;20073;-71
2024/03/23 09:46:00;;;;;;;5.22;4.68;;;614.70;1177.60;;;;;;5010476;28;20096;-71
2024/03/23 09:48:26;;;;;;;6.57;4.88;;;614.50;1203.20;;;;;;5010310;28;20029;-68
2024/03/23 09:50:52;;;;;;;7.25;5.60;;;614.50;1203.20;;;;;;5010642;28;20384;-69
2024/03/23 09:53:17;;;;;;;7.88;6.57;;;589.70;1228.80;;;;;;5010319;28;20040;-78
2024/03/23 09:55:45;;;;;;;8.68;6.43;;;589.70;1203.20;;;;;;5010681;28;20030;-69
2024/03/23 09:58:16;;;;;;;6.72;5.45;;;589.60;1203.20;;;;;;5010150;28;20065;-69
2024/03/23 10:00:42;;;;;;;6.22;5.57;;;589.60;1203.20;;;;;;5018552;28;20034;-69
2024/03/23 10:03:10;;;;;;;6.93;5.28;;;589.60;1228.80;;;;;;5013454;28;20030;-69
2024/03/23 10:05:39;;;;;;;8.60;6.45;;;589.60;1254.40;;;;;;5010397;28;20487;-78
2024/03/23 10:08:14;;;;;;;6.70;5.28;;;589.70;1228.80;;;;;;5010446;28;20026;-69
2024/03/23 10:10:43;;;;;;;7.07;4.50;;;589.70;1254.40;;;;;;5009936;28;20026;-69
2024/03/23 10:13:10;;;;;;;5.55;4.72;;;589.70;1228.80;;;;;;5010185;28;20049;-69
2024/03/23 10:15:37;;;;;;;6.65;4.95;;;589.70;1203.20;;;;;;5010216;28;20029;-69
2024/03/23 10:18:22;;;;;;;14.40;11.32;;;589.70;1203.20;;;;;;5010168;28;20109;-69
2024/03/23 10:21:05;;;;;;;6.60;5.88;;;589.70;1203.20;;;;;;5009812;28;20018;-70
2024/03/23 10:23:32;;;;;;;5.82;4.90;;;614.50;1177.60;;;;;;5010338;28;20046;-72
2024/03/23 10:26:18;;;;;;;6.55;5.78;;;614.40;1228.80;;;;;;5011184;28;20061;-70
2024/03/23 10:29:01;;;;;;;11.73;6.68;;;614.40;1203.20;;;;;;5009861;28;20036;-69
2024/03/23 10:31:31;;;;;;;5.75;4.60;;;614.40;1228.80;;;;;;5009723;28;20078;-69
2024/03/23 10:33:57;;;;;;;5.75;4.53;;;589.70;1203.20;;;;;;5009870;28;20105;-70
2024/03/23 10:36:25;;;;;;;6.78;5.28;;;589.70;1203.20;;;;;;5010015;28;20030;-69
2024/03/23 10:38:52;;;;;;;7.40;5.40;;;589.70;1203.20;;;;;;5009518;28;20022;-70
2024/03/23 10:41:18;;;;;;;5.65;4.00;;;589.70;1203.20;;;;;;5009185;28;20037;-70
2024/03/23 10:43:49;;;;;;;5.97;4.40;;;614.40;1203.20;;;;;;5009863;28;20037;-69
2024/03/23 10:46:15;;;;;;;6.20;4.70;;;589.60;1203.20;;;;;;5010201;28;20412;-69
2024/03/23 10:48:43;;;;;;;8.18;4.90;;;589.50;1203.20;;;;;;5009765;28;20029;-83
2024/03/23 10:51:09;;;;;;;5.82;4.45;;;589.20;1203.20;;;;;;5010132;28;20022;-69
2024/03/23 10:53:36;;;;;;;8.48;4.93;;;589.10;1228.80;;;;;;5005840;28;20068;-82
2024/03/23 10:56:04;;;;;;;6.25;4.25;;;589.20;1228.80;;;;;;4993615;28;20388;-70
2024/03/23 10:58:42;;;;;;;6.05;4.10;;;589.20;1228.80;;;;;;5009537;28;20095;-69
2024/03/23 11:01:12;;;;;;;5.82;3.47;;;589.10;1203.20;;;;;;5008451;28;20048;-69
2024/03/23 11:03:40;;;;;;;4.75;3.45;;;589.00;1203.20;;;;;;5009225;28;20044;-69
2024/03/23 11:06:08;;;;;;;5.82;3.70;;;588.90;1203.20;;;;;;5009748;28;20486;-74
2024/03/23 11:08:43;;;;;;;6.35;3.85;;;589.00;1228.80;;;;;;5008951;28;20025;-68
2024/03/23 11:11:17;;;;;;;7.63;4.22;;;588.90;1203.20;;;;;;5008891;28;20025;-69
2024/03/23 11:13:43;;;;;;;4.75;4.18;;;588.90;1203.20;;;;;;5009097;28;20740;-69
2024/03/23 11:16:16;;;;;;;5.43;4.00;;;588.80;1228.80;;;;;;5009146;28;20049;-70
2024/03/23 11:18:43;;;;;;;5.50;3.67;;;588.90;1228.80;;;;;;5008763;28;20018;-69
2024/03/23 11:21:10;;;;;;;7.50;4.78;;;588.90;1228.80;;;;;;5009300;28;20037;-69
2024/03/23 11:23:36;;;;;;;6.10;3.80;;;588.90;1228.80;;;;;;5008994;28;20360;-69
2024/03/23 11:26:02;;;;;;;5.32;3.90;;;588.80;1228.80;;;;;;4998523;28;20019;-69
2024/03/23 11:28:28;;;;;;;6.13;4.63;;;588.90;1228.80;;;;;;5004795;28;20357;-69
2024/03/23 11:30:54;;;;;;;5.05;3.63;;;589.00;1228.80;;;;;;5008345;28;20125;-74
2024/03/23 11:33:20;;;;;;;6.28;4.05;;;589.00;1254.40;;;;;;5015707;28;20108;-77
2024/03/23 11:35:46;;;;;;;7.10;4.55;;;588.90;1228.80;;;;;;5018344;28;20108;-69
2024/03/23 11:38:18;;;;;;;4.75;4.10;;;588.80;1228.80;;;;;;5013022;28;20030;-69
2024/03/23 11:40:46;;;;;;;5.90;4.20;;;588.90;1228.80;;;;;;5026737;28;20017;-70
2024/03/23 11:43:16;;;;;;;5.28;4.05;;;588.90;1228.80;;;;;;5020228;28;20045;-80
2024/03/23 11:45:46;;;;;;;5.60;4.35;;;589.00;1254.40;;;;;;5017105;28;20088;-69
2024/03/23 11:48:13;;;;;;;5.18;4.63;;;589.10;1228.80;;;;;;5013297;28;20030;-80
2024/03/23 11:50:44;;;;;;;8.15;6.20;;;589.10;1228.80;;;;;;5017313;28;20372;-69
2024/03/23 11:53:14;;;;;;;5.22;3.75;;;589.10;1228.80;;;;;;5012929;28;20105;-78
2024/03/23 11:55:50;;;;;;;4.60;4.00;;;589.00;1203.20;;;;;;5014287;28;20101;-72
2024/03/23 11:58:18;;;;;;;5.75;4.20;;;589.00;1228.80;;;;;;4996814;28;20026;-73
2024/03/23 12:00:59;;;;;;;7.95;5.05;;;589.10;1254.40;;;;;;5008931;28;20441;-74
2024/03/23 12:03:28;;;;;;;5.60;4.43;;;589.10;1228.80;;;;;;4991255;28;20054;-76